K4BM

Wilkerson Pass Airport

Wilkerson Pass, Colorado, USA
METAR K4BM 170831Z AUTO 22009KT 10SM SCT100 M05/M13 A3016 RMK AO2 LTG DSNT NW
Observed Flight Rules
Nov-17 @ 08:31 UTC (25 minutes ago) Visual Flight Rules
Wind Visibility Clouds
220° at 9 knots 10 miles
  • Scattered at 10,000' AGL
Temperatures Readings
Current -5°C / 23°F
Dewpoint -13°C / 9°F
Humidity 54%
Altimeter 30.16" Hg
Pressure 1021 hPa
Elevation 3438
METAR K4BM 170831Z AUTO 22009KT 10SM SCT100 M05/M13 A3016 RMK AO2 LTG DSNT NW
Observed Flight Rules
Nov-17 @ 08:31 UTC
(25 minutes ago)
VFR
Wind Visibility
220° at 9 knots 10 miles
Clouds
  • Scattered at 10,000' AGL
Temperature Dewpoint
-5°C / 23°F -13°C / 9°F
Humidity Altimeter Pressure
54% 30.16" Hg 1021 hPa